sensor_id;sensor_type;location;lat;lon;timestamp;P1;durP1;ratioP1;P2;durP2;ratioP2
20966;SDS011;10642;50.682;18.510;2023-09-19T00:00:49;20.47;;;13.80;;
20966;SDS011;10642;50.682;18.510;2023-09-19T00:03:16;20.23;;;13.60;;
20966;SDS011;10642;50.682;18.510;2023-09-19T00:05:43;23.27;;;13.37;;
20966;SDS011;10642;50.682;18.510;2023-09-19T00:08:11;17.83;;;12.67;;
20966;SDS011;10642;50.682;18.510;2023-09-19T00:10:42;18.93;;;13.83;;
20966;SDS011;10642;50.682;18.510;2023-09-19T00:13:10;19.03;;;13.90;;
20966;SDS011;10642;50.682;18.510;2023-09-19T00:15:42;23.13;;;13.13;;
20966;SDS011;10642;50.682;18.510;2023-09-19T00:18:09;23.33;;;14.37;;
20966;SDS011;10642;50.682;18.510;2023-09-19T00:20:36;20.50;;;14.03;;
20966;SDS011;10642;50.682;18.510;2023-09-19T00:23:04;22.23;;;14.47;;
20966;SDS011;10642;50.682;18.510;2023-09-19T00:25:35;18.87;;;13.83;;
20966;SDS011;10642;50.682;18.510;2023-09-19T00:28:04;20.67;;;13.47;;
20966;SDS011;10642;50.682;18.510;2023-09-19T00:30:31;21.83;;;13.53;;
20966;SDS011;10642;50.682;18.510;2023-09-19T00:32:59;19.30;;;13.83;;
20966;SDS011;10642;50.682;18.510;2023-09-19T00:35:27;20.60;;;13.13;;
20966;SDS011;10642;50.682;18.510;2023-09-19T00:37:54;23.17;;;13.57;;
20966;SDS011;10642;50.682;18.510;2023-09-19T00:40:22;22.17;;;13.43;;
20966;SDS011;10642;50.682;18.510;2023-09-19T00:42:50;23.13;;;14.10;;
20966;SDS011;10642;50.682;18.510;2023-09-19T00:45:18;24.73;;;14.90;;
20966;SDS011;10642;50.682;18.510;2023-09-19T00:47:48;21.73;;;14.80;;
20966;SDS011;10642;50.682;18.510;2023-09-19T00:50:18;21.47;;;15.43;;
20966;SDS011;10642;50.682;18.510;2023-09-19T00:52:46;22.07;;;15.13;;
20966;SDS011;10642;50.682;18.510;2023-09-19T00:55:13;22.27;;;13.70;;
20966;SDS011;10642;50.682;18.510;2023-09-19T00:57:41;25.93;;;14.93;;
20966;SDS011;10642;50.682;18.510;2023-09-19T01:00:08;22.57;;;16.40;;
20966;SDS011;10642;50.682;18.510;2023-09-19T01:02:41;27.17;;;15.50;;
20966;SDS011;10642;50.682;18.510;2023-09-19T01:05:10;24.77;;;15.73;;
20966;SDS011;10642;50.682;18.510;2023-09-19T01:07:37;22.27;;;14.93;;
20966;SDS011;10642;50.682;18.510;2023-09-19T01:10:15;27.30;;;15.40;;
20966;SDS011;10642;50.682;18.510;2023-09-19T01:12:45;24.63;;;14.87;;
20966;SDS011;10642;50.682;18.510;2023-09-19T01:15:17;22.53;;;14.23;;
20966;SDS011;10642;50.682;18.510;2023-09-19T01:17:50;18.77;;;12.87;;
20966;SDS011;10642;50.682;18.510;2023-09-19T01:26:17;24.73;;;15.33;;
20966;SDS011;10642;50.682;18.510;2023-09-19T01:31:13;26.53;;;15.77;;
20966;SDS011;10642;50.682;18.510;2023-09-19T01:34:00;30.37;;;16.10;;
20966;SDS011;10642;50.682;18.510;2023-09-19T01:36:29;24.20;;;16.70;;
20966;SDS011;10642;50.682;18.510;2023-09-19T01:38:57;23.60;;;15.37;;
20966;SDS011;10642;50.682;18.510;2023-09-19T01:41:33;25.33;;;15.63;;
20966;SDS011;10642;50.682;18.510;2023-09-19T01:44:02;23.47;;;15.93;;
20966;SDS011;10642;50.682;18.510;2023-09-19T01:46:32;24.83;;;15.83;;
20966;SDS011;10642;50.682;18.510;2023-09-19T01:52:10;22.27;;;15.67;;
20966;SDS011;10642;50.682;18.510;2023-09-19T01:54:41;25.37;;;15.97;;
20966;SDS011;10642;50.682;18.510;2023-09-19T01:57:14;24.67;;;16.77;;
20966;SDS011;10642;50.682;18.510;2023-09-19T01:59:48;21.53;;;16.00;;
20966;SDS011;10642;50.682;18.510;2023-09-19T02:02:17;20.33;;;15.60;;
20966;SDS011;10642;50.682;18.510;2023-09-19T02:04:45;24.00;;;15.30;;
20966;SDS011;10642;50.682;18.510;2023-09-19T02:07:12;26.23;;;15.60;;
20966;SDS011;10642;50.682;18.510;2023-09-19T02:09:39;23.53;;;15.30;;
20966;SDS011;10642;50.682;18.510;2023-09-19T02:12:06;20.90;;;14.57;;
20966;SDS011;10642;50.682;18.510;2023-09-19T02:14:34;22.20;;;14.30;;
20966;SDS011;10642;50.682;18.510;2023-09-19T02:17:02;23.00;;;14.63;;
20966;SDS011;10642;50.682;18.510;2023-09-19T02:19:39;23.50;;;15.30;;
20966;SDS011;10642;50.682;18.510;2023-09-19T02:22:07;25.83;;;15.57;;
20966;SDS011;10642;50.682;18.510;2023-09-19T02:24:37;25.83;;;16.70;;
20966;SDS011;10642;50.682;18.510;2023-09-19T02:27:05;23.60;;;16.00;;
20966;SDS011;10642;50.682;18.510;2023-09-19T02:29:32;21.07;;;15.03;;
20966;SDS011;10642;50.682;18.510;2023-09-19T02:32:01;23.60;;;15.60;;
20966;SDS011;10642;50.682;18.510;2023-09-19T02:34:30;23.33;;;15.27;;
20966;SDS011;10642;50.682;18.510;2023-09-19T02:36:57;22.10;;;15.63;;
20966;SDS011;10642;50.682;18.510;2023-09-19T02:39:24;22.43;;;15.17;;
20966;SDS011;10642;50.682;18.510;2023-09-19T02:41:51;27.87;;;15.07;;
20966;SDS011;10642;50.682;18.510;2023-09-19T02:44:18;25.07;;;15.93;;
20966;SDS011;10642;50.682;18.510;2023-09-19T02:46:46;22.43;;;14.73;;
20966;SDS011;10642;50.682;18.510;2023-09-19T02:49:14;24.63;;;15.80;;
20966;SDS011;10642;50.682;18.510;2023-09-19T02:51:41;24.90;;;15.40;;
20966;SDS011;10642;50.682;18.510;2023-09-19T02:54:08;21.93;;;15.47;;
20966;SDS011;10642;50.682;18.510;2023-09-19T02:56:36;24.63;;;15.90;;
20966;SDS011;10642;50.682;18.510;2023-09-19T02:59:03;21.07;;;15.87;;
20966;SDS011;10642;50.682;18.510;2023-09-19T03:01:30;23.43;;;16.07;;
20966;SDS011;10642;50.682;18.510;2023-09-19T03:03:59;23.87;;;15.97;;
20966;SDS011;10642;50.682;18.510;2023-09-19T03:06:26;28.77;;;17.07;;
20966;SDS011;10642;50.682;18.510;2023-09-19T03:08:53;26.37;;;18.33;;
20966;SDS011;10642;50.682;18.510;2023-09-19T03:11:21;24.27;;;17.63;;
20966;SDS011;10642;50.682;18.510;2023-09-19T03:13:53;23.27;;;15.93;;
20966;SDS011;10642;50.682;18.510;2023-09-19T03:16:21;22.43;;;16.27;;
20966;SDS011;10642;50.682;18.510;2023-09-19T03:18:51;26.13;;;16.40;;
20966;SDS011;10642;50.682;18.510;2023-09-19T03:21:23;22.37;;;16.40;;
20966;SDS011;10642;50.682;18.510;2023-09-19T03:23:50;27.07;;;16.60;;
20966;SDS011;10642;50.682;18.510;2023-09-19T03:26:17;29.87;;;16.57;;
20966;SDS011;10642;50.682;18.510;2023-09-19T03:28:44;23.00;;;16.83;;
20966;SDS011;10642;50.682;18.510;2023-09-19T03:31:13;24.87;;;16.37;;
20966;SDS011;10642;50.682;18.510;2023-09-19T03:33:40;29.03;;;16.73;;
20966;SDS011;10642;50.682;18.510;2023-09-19T03:36:07;31.47;;;16.80;;
20966;SDS011;10642;50.682;18.510;2023-09-19T03:38:34;22.73;;;16.03;;
20966;SDS011;10642;50.682;18.510;2023-09-19T03:41:02;25.17;;;16.17;;
20966;SDS011;10642;50.682;18.510;2023-09-19T03:43:29;31.00;;;17.73;;
20966;SDS011;10642;50.682;18.510;2023-09-19T03:46:01;29.73;;;17.13;;
20966;SDS011;10642;50.682;18.510;2023-09-19T03:48:29;28.07;;;17.77;;
20966;SDS011;10642;50.682;18.510;2023-09-19T03:50:58;26.90;;;18.57;;
20966;SDS011;10642;50.682;18.510;2023-09-19T03:53:25;26.07;;;17.73;;
20966;SDS011;10642;50.682;18.510;2023-09-19T03:55:52;24.30;;;17.67;;
20966;SDS011;10642;50.682;18.510;2023-09-19T03:58:19;25.20;;;17.17;;
20966;SDS011;10642;50.682;18.510;2023-09-19T04:00:47;24.50;;;17.30;;
20966;SDS011;10642;50.682;18.510;2023-09-19T04:03:16;23.30;;;15.70;;
20966;SDS011;10642;50.682;18.510;2023-09-19T04:05:47;23.53;;;17.10;;
20966;SDS011;10642;50.682;18.510;2023-09-19T04:08:14;23.47;;;16.30;;
20966;SDS011;10642;50.682;18.510;2023-09-19T04:10:42;23.13;;;15.27;;
20966;SDS011;10642;50.682;18.510;2023-09-19T04:13:10;23.80;;;16.33;;
20966;SDS011;10642;50.682;18.510;2023-09-19T04:15:37;20.97;;;15.33;;
20966;SDS011;10642;50.682;18.510;2023-09-19T04:18:04;26.40;;;16.33;;
20966;SDS011;10642;50.682;18.510;2023-09-19T04:20:31;23.07;;;16.13;;
20966;SDS011;10642;50.682;18.510;2023-09-19T04:22:59;22.00;;;15.40;;
20966;SDS011;10642;50.682;18.510;2023-09-19T04:25:26;19.67;;;14.60;;
20966;SDS011;10642;50.682;18.510;2023-09-19T04:27:54;19.90;;;14.33;;
20966;SDS011;10642;50.682;18.510;2023-09-19T04:30:21;23.63;;;12.13;;
20966;SDS011;10642;50.682;18.510;2023-09-19T04:32:48;18.70;;;13.03;;
20966;SDS011;10642;50.682;18.510;2023-09-19T04:35:18;21.77;;;12.80;;
20966;SDS011;10642;50.682;18.510;2023-09-19T04:37:45;20.77;;;12.47;;
20966;SDS011;10642;50.682;18.510;2023-09-19T04:40:13;21.87;;;12.37;;
20966;SDS011;10642;50.682;18.510;2023-09-19T04:42:44;16.00;;;12.07;;
20966;SDS011;10642;50.682;18.510;2023-09-19T04:45:13;17.43;;;12.07;;
20966;SDS011;10642;50.682;18.510;2023-09-19T04:47:40;19.03;;;12.37;;
20966;SDS011;10642;50.682;18.510;2023-09-19T04:50:10;21.33;;;12.00;;
20966;SDS011;10642;50.682;18.510;2023-09-19T04:52:41;15.63;;;10.97;;
20966;SDS011;10642;50.682;18.510;2023-09-19T04:55:12;14.63;;;11.17;;
20966;SDS011;10642;50.682;18.510;2023-09-19T04:57:44;16.47;;;11.13;;
20966;SDS011;10642;50.682;18.510;2023-09-19T05:00:12;16.67;;;10.20;;
20966;SDS011;10642;50.682;18.510;2023-09-19T05:02:41;18.10;;;10.80;;
20966;SDS011;10642;50.682;18.510;2023-09-19T05:05:09;19.60;;;10.23;;
20966;SDS011;10642;50.682;18.510;2023-09-19T05:07:43;19.23;;;10.47;;
20966;SDS011;10642;50.682;18.510;2023-09-19T05:10:11;20.03;;;9.70;;
20966;SDS011;10642;50.682;18.510;2023-09-19T05:12:39;14.47;;;9.27;;
20966;SDS011;10642;50.682;18.510;2023-09-19T05:15:06;18.10;;;10.50;;
20966;SDS011;10642;50.682;18.510;2023-09-19T05:17:34;19.23;;;10.57;;
20966;SDS011;10642;50.682;18.510;2023-09-19T05:20:01;15.07;;;9.87;;
20966;SDS011;10642;50.682;18.510;2023-09-19T05:22:43;12.43;;;9.10;;
20966;SDS011;10642;50.682;18.510;2023-09-19T05:25:10;13.73;;;9.63;;
20966;SDS011;10642;50.682;18.510;2023-09-19T05:27:37;15.77;;;9.83;;
20966;SDS011;10642;50.682;18.510;2023-09-19T05:30:04;17.47;;;9.73;;
20966;SDS011;10642;50.682;18.510;2023-09-19T05:32:31;18.73;;;10.07;;
20966;SDS011;10642;50.682;18.510;2023-09-19T05:34:58;15.93;;;9.80;;
20966;SDS011;10642;50.682;18.510;2023-09-19T05:37:25;13.10;;;9.10;;
20966;SDS011;10642;50.682;18.510;2023-09-19T05:39:53;14.17;;;9.57;;
20966;SDS011;10642;50.682;18.510;2023-09-19T05:42:24;16.03;;;8.87;;
20966;SDS011;10642;50.682;18.510;2023-09-19T05:44:51;13.13;;;8.93;;
20966;SDS011;10642;50.682;18.510;2023-09-19T05:47:18;15.27;;;8.40;;
20966;SDS011;10642;50.682;18.510;2023-09-19T05:49:45;9.90;;;7.67;;
20966;SDS011;10642;50.682;18.510;2023-09-19T05:52:12;14.07;;;7.83;;
20966;SDS011;10642;50.682;18.510;2023-09-19T05:54:39;17.70;;;8.03;;
20966;SDS011;10642;50.682;18.510;2023-09-19T05:57:06;14.10;;;7.97;;
20966;SDS011;10642;50.682;18.510;2023-09-19T05:59:33;10.43;;;7.40;;
20966;SDS011;10642;50.682;18.510;2023-09-19T06:02:00;18.33;;;8.00;;
20966;SDS011;10642;50.682;18.510;2023-09-19T06:04:28;14.30;;;8.07;;
20966;SDS011;10642;50.682;18.510;2023-09-19T06:06:56;12.23;;;8.13;;
20966;SDS011;10642;50.682;18.510;2023-09-19T06:09:23;12.63;;;7.93;;
20966;SDS011;10642;50.682;18.510;2023-09-19T06:11:50;12.33;;;7.63;;
20966;SDS011;10642;50.682;18.510;2023-09-19T06:14:18;15.10;;;7.23;;
20966;SDS011;10642;50.682;18.510;2023-09-19T06:16:45;16.03;;;8.20;;
20966;SDS011;10642;50.682;18.510;2023-09-19T06:19:14;15.83;;;8.37;;
20966;SDS011;10642;50.682;18.510;2023-09-19T06:21:41;18.63;;;8.13;;
20966;SDS011;10642;50.682;18.510;2023-09-19T06:24:07;13.93;;;8.50;;
20966;SDS011;10642;50.682;18.510;2023-09-19T06:26:34;9.87;;;7.27;;
20966;SDS011;10642;50.682;18.510;2023-09-19T06:29:01;13.47;;;8.20;;
20966;SDS011;10642;50.682;18.510;2023-09-19T06:31:34;12.00;;;8.33;;
20966;SDS011;10642;50.682;18.510;2023-09-19T06:34:01;17.03;;;7.70;;
20966;SDS011;10642;50.682;18.510;2023-09-19T06:36:29;14.90;;;7.43;;
20966;SDS011;10642;50.682;18.510;2023-09-19T06:38:56;10.77;;;7.80;;
20966;SDS011;10642;50.682;18.510;2023-09-19T06:41:23;13.60;;;7.50;;
20966;SDS011;10642;50.682;18.510;2023-09-19T06:43:51;11.47;;;7.50;;
20966;SDS011;10642;50.682;18.510;2023-09-19T06:46:21;12.87;;;7.30;;
20966;SDS011;10642;50.682;18.510;2023-09-19T06:48:48;12.40;;;7.67;;
20966;SDS011;10642;50.682;18.510;2023-09-19T06:51:16;14.33;;;7.27;;
20966;SDS011;10642;50.682;18.510;2023-09-19T06:53:43;12.40;;;7.10;;
20966;SDS011;10642;50.682;18.510;2023-09-19T06:56:10;14.17;;;7.03;;
20966;SDS011;10642;50.682;18.510;2023-09-19T06:58:37;12.10;;;6.87;;
20966;SDS011;10642;50.682;18.510;2023-09-19T07:01:05;12.03;;;6.23;;
20966;SDS011;10642;50.682;18.510;2023-09-19T07:03:31;14.83;;;6.80;;
20966;SDS011;10642;50.682;18.510;2023-09-19T07:06:00;11.70;;;6.50;;
20966;SDS011;10642;50.682;18.510;2023-09-19T07:08:27;11.80;;;5.70;;
20966;SDS011;10642;50.682;18.510;2023-09-19T07:10:55;12.13;;;6.00;;
20966;SDS011;10642;50.682;18.510;2023-09-19T07:13:23;10.60;;;5.40;;
20966;SDS011;10642;50.682;18.510;2023-09-19T07:15:51;9.60;;;5.03;;
20966;SDS011;10642;50.682;18.510;2023-09-19T07:18:18;6.13;;;4.43;;
20966;SDS011;10642;50.682;18.510;2023-09-19T07:20:47;7.93;;;4.47;;
20966;SDS011;10642;50.682;18.510;2023-09-19T07:23:20;9.33;;;4.60;;
20966;SDS011;10642;50.682;18.510;2023-09-19T07:25:48;7.37;;;4.40;;
20966;SDS011;10642;50.682;18.510;2023-09-19T07:28:15;5.33;;;4.03;;
20966;SDS011;10642;50.682;18.510;2023-09-19T07:30:42;7.60;;;4.17;;
20966;SDS011;10642;50.682;18.510;2023-09-19T07:33:09;8.10;;;4.03;;
20966;SDS011;10642;50.682;18.510;2023-09-19T07:35:39;8.47;;;3.67;;
20966;SDS011;10642;50.682;18.510;2023-09-19T07:38:07;5.80;;;3.23;;
20966;SDS011;10642;50.682;18.510;2023-09-19T07:40:34;7.23;;;3.60;;
20966;SDS011;10642;50.682;18.510;2023-09-19T07:43:03;12.53;;;3.40;;
20966;SDS011;10642;50.682;18.510;2023-09-19T07:45:31;5.63;;;3.50;;
20966;SDS011;10642;50.682;18.510;2023-09-19T07:47:58;5.07;;;3.70;;
20966;SDS011;10642;50.682;18.510;2023-09-19T07:50:31;7.00;;;3.10;;
20966;SDS011;10642;50.682;18.510;2023-09-19T07:52:58;6.40;;;3.00;;
20966;SDS011;10642;50.682;18.510;2023-09-19T07:55:25;7.03;;;3.30;;
20966;SDS011;10642;50.682;18.510;2023-09-19T07:57:52;6.27;;;2.60;;
20966;SDS011;10642;50.682;18.510;2023-09-19T08:00:19;5.40;;;2.70;;
20966;SDS011;10642;50.682;18.510;2023-09-19T08:02:46;5.63;;;2.63;;
20966;SDS011;10642;50.682;18.510;2023-09-19T08:05:24;7.13;;;2.90;;
20966;SDS011;10642;50.682;18.510;2023-09-19T08:07:51;6.47;;;2.37;;
20966;SDS011;10642;50.682;18.510;2023-09-19T08:10:19;9.37;;;2.83;;
20966;SDS011;10642;50.682;18.510;2023-09-19T08:12:48;6.70;;;2.57;;
20966;SDS011;10642;50.682;18.510;2023-09-19T08:15:16;6.20;;;2.60;;
20966;SDS011;10642;50.682;18.510;2023-09-19T08:17:43;4.77;;;2.20;;
20966;SDS011;10642;50.682;18.510;2023-09-19T08:20:10;5.90;;;2.27;;
20966;SDS011;10642;50.682;18.510;2023-09-19T08:22:46;5.57;;;1.83;;
20966;SDS011;10642;50.682;18.510;2023-09-19T08:25:15;4.50;;;2.33;;
20966;SDS011;10642;50.682;18.510;2023-09-19T08:27:45;3.70;;;2.27;;
20966;SDS011;10642;50.682;18.510;2023-09-19T08:30:16;4.03;;;2.23;;
20966;SDS011;10642;50.682;18.510;2023-09-19T08:32:43;4.03;;;1.80;;
20966;SDS011;10642;50.682;18.510;2023-09-19T08:35:10;5.73;;;2.20;;
20966;SDS011;10642;50.682;18.510;2023-09-19T08:37:37;6.90;;;2.17;;
20966;SDS011;10642;50.682;18.510;2023-09-19T08:40:04;2.87;;;1.80;;
20966;SDS011;10642;50.682;18.510;2023-09-19T08:42:51;5.90;;;2.00;;
20966;SDS011;10642;50.682;18.510;2023-09-19T08:45:23;5.73;;;1.90;;
20966;SDS011;10642;50.682;18.510;2023-09-19T08:50:40;4.43;;;2.00;;
20966;SDS011;10642;50.682;18.510;2023-09-19T08:53:15;5.73;;;1.63;;
20966;SDS011;10642;50.682;18.510;2023-09-19T08:55:42;6.00;;;1.93;;
20966;SDS011;10642;50.682;18.510;2023-09-19T08:58:10;4.40;;;1.80;;
20966;SDS011;10642;50.682;18.510;2023-09-19T09:00:40;2.67;;;1.53;;
20966;SDS011;10642;50.682;18.510;2023-09-19T09:03:10;8.17;;;1.73;;
20966;SDS011;10642;50.682;18.510;2023-09-19T09:05:38;7.43;;;1.93;;
20966;SDS011;10642;50.682;18.510;2023-09-19T09:08:09;3.70;;;1.60;;
20966;SDS011;10642;50.682;18.510;2023-09-19T09:10:37;3.30;;;1.63;;
20966;SDS011;10642;50.682;18.510;2023-09-19T09:13:04;4.50;;;1.77;;
20966;SDS011;10642;50.682;18.510;2023-09-19T09:15:35;6.57;;;1.70;;
20966;SDS011;10642;50.682;18.510;2023-09-19T09:18:02;6.10;;;2.30;;
20966;SDS011;10642;50.682;18.510;2023-09-19T09:20:29;6.53;;;1.70;;
20966;SDS011;10642;50.682;18.510;2023-09-19T09:22:56;4.37;;;1.70;;
20966;SDS011;10642;50.682;18.510;2023-09-19T09:25:48;4.93;;;1.63;;
20966;SDS011;10642;50.682;18.510;2023-09-19T09:28:20;4.70;;;1.37;;
20966;SDS011;10642;50.682;18.510;2023-09-19T09:30:48;5.33;;;2.13;;
20966;SDS011;10642;50.682;18.510;2023-09-19T09:33:15;4.80;;;2.10;;
20966;SDS011;10642;50.682;18.510;2023-09-19T09:35:53;4.90;;;1.73;;
20966;SDS011;10642;50.682;18.510;2023-09-19T09:38:20;6.77;;;2.10;;
20966;SDS011;10642;50.682;18.510;2023-09-19T09:40:48;7.90;;;2.60;;
20966;SDS011;10642;50.682;18.510;2023-09-19T09:46:07;8.33;;;2.10;;
20966;SDS011;10642;50.682;18.510;2023-09-19T09:51:43;3.83;;;2.03;;
20966;SDS011;10642;50.682;18.510;2023-09-19T09:54:16;8.20;;;2.00;;
20966;SDS011;10642;50.682;18.510;2023-09-19T09:56:55;3.70;;;1.77;;
20966;SDS011;10642;50.682;18.510;2023-09-19T10:02:17;7.27;;;2.50;;
20966;SDS011;10642;50.682;18.510;2023-09-19T10:04:56;3.83;;;2.57;;
20966;SDS011;10642;50.682;18.510;2023-09-19T10:07:40;10.10;;;3.10;;
20966;SDS011;10642;50.682;18.510;2023-09-19T10:10:32;6.67;;;2.20;;
20966;SDS011;10642;50.682;18.510;2023-09-19T10:13:09;3.77;;;2.13;;
20966;SDS011;10642;50.682;18.510;2023-09-19T10:15:42;5.67;;;2.37;;
20966;SDS011;10642;50.682;18.510;2023-09-19T10:18:19;3.60;;;2.03;;
20966;SDS011;10642;50.682;18.510;2023-09-19T10:20:47;8.97;;;2.70;;
20966;SDS011;10642;50.682;18.510;2023-09-19T10:23:16;8.97;;;2.83;;
20966;SDS011;10642;50.682;18.510;2023-09-19T10:25:49;5.67;;;3.60;;
20966;SDS011;10642;50.682;18.510;2023-09-19T10:28:17;7.07;;;2.80;;
20966;SDS011;10642;50.682;18.510;2023-09-19T10:30:48;6.40;;;2.80;;
20966;SDS011;10642;50.682;18.510;2023-09-19T10:33:17;8.47;;;3.40;;
20966;SDS011;10642;50.682;18.510;2023-09-19T10:35:45;5.57;;;3.10;;
20966;SDS011;10642;50.682;18.510;2023-09-19T10:38:13;6.23;;;3.10;;
20966;SDS011;10642;50.682;18.510;2023-09-19T10:40:45;5.50;;;3.00;;
20966;SDS011;10642;50.682;18.510;2023-09-19T10:43:15;6.67;;;3.27;;
20966;SDS011;10642;50.682;18.510;2023-09-19T10:45:45;6.80;;;3.37;;
20966;SDS011;10642;50.682;18.510;2023-09-19T10:48:13;7.27;;;3.40;;
20966;SDS011;10642;50.682;18.510;2023-09-19T10:50:44;5.70;;;3.50;;
20966;SDS011;10642;50.682;18.510;2023-09-19T10:53:12;7.27;;;3.57;;
20966;SDS011;10642;50.682;18.510;2023-09-19T10:55:40;7.83;;;3.97;;
20966;SDS011;10642;50.682;18.510;2023-09-19T10:58:07;7.87;;;3.70;;
20966;SDS011;10642;50.682;18.510;2023-09-19T11:00:51;5.90;;;3.50;;
20966;SDS011;10642;50.682;18.510;2023-09-19T11:03:20;7.60;;;3.50;;
20966;SDS011;10642;50.682;18.510;2023-09-19T11:06:04;7.83;;;3.63;;
20966;SDS011;10642;50.682;18.510;2023-09-19T11:30:36;9.97;;;4.57;;
20966;SDS011;10642;50.682;18.510;2023-09-19T11:33:15;7.97;;;3.83;;
20966;SDS011;10642;50.682;18.510;2023-09-19T11:43:53;8.77;;;4.00;;
20966;SDS011;10642;50.682;18.510;2023-09-19T11:46:29;6.93;;;4.70;;
20966;SDS011;10642;50.682;18.510;2023-09-19T11:49:06;5.27;;;3.83;;
20966;SDS011;10642;50.682;18.510;2023-09-19T11:51:42;6.23;;;4.13;;
20966;SDS011;10642;50.682;18.510;2023-09-19T11:54:11;5.27;;;3.60;;
20966;SDS011;10642;50.682;18.510;2023-09-19T11:56:45;8.03;;;3.70;;
20966;SDS011;10642;50.682;18.510;2023-09-19T11:59:26;6.53;;;3.73;;
20966;SDS011;10642;50.682;18.510;2023-09-19T12:02:05;7.13;;;4.20;;
20966;SDS011;10642;50.682;18.510;2023-09-19T12:04:39;10.77;;;5.10;;
20966;SDS011;10642;50.682;18.510;2023-09-19T12:07:08;5.50;;;4.10;;
20966;SDS011;10642;50.682;18.510;2023-09-19T12:09:43;6.57;;;4.07;;
20966;SDS011;10642;50.682;18.510;2023-09-19T12:12:20;6.37;;;4.13;;
20966;SDS011;10642;50.682;18.510;2023-09-19T12:14:48;7.07;;;4.00;;
20966;SDS011;10642;50.682;18.510;2023-09-19T12:17:15;9.43;;;3.67;;
20966;SDS011;10642;50.682;18.510;2023-09-19T12:19:52;6.43;;;4.03;;
20966;SDS011;10642;50.682;18.510;2023-09-19T12:22:19;7.73;;;3.60;;
20966;SDS011;10642;50.682;18.510;2023-09-19T12:24:47;5.00;;;3.40;;
20966;SDS011;10642;50.682;18.510;2023-09-19T12:27:14;3.53;;;3.23;;
20966;SDS011;10642;50.682;18.510;2023-09-19T12:29:42;7.50;;;3.30;;
20966;SDS011;10642;50.682;18.510;2023-09-19T12:32:10;4.53;;;3.33;;
20966;SDS011;10642;50.682;18.510;2023-09-19T12:34:37;5.00;;;3.60;;
20966;SDS011;10642;50.682;18.510;2023-09-19T12:39:39;3.47;;;2.40;;
20966;SDS011;10642;50.682;18.510;2023-09-19T12:42:10;5.13;;;3.10;;
20966;SDS011;10642;50.682;18.510;2023-09-19T12:44:41;6.43;;;3.03;;
20966;SDS011;10642;50.682;18.510;2023-09-19T12:47:10;3.93;;;2.50;;
20966;SDS011;10642;50.682;18.510;2023-09-19T12:50:04;4.07;;;2.43;;
20966;SDS011;10642;50.682;18.510;2023-09-19T12:52:24;5.23;;;3.13;;
20966;SDS011;10642;50.682;18.510;2023-09-19T12:54:53;4.03;;;2.50;;
20966;SDS011;10642;50.682;18.510;2023-09-19T12:57:25;3.00;;;2.30;;
20966;SDS011;10642;50.682;18.510;2023-09-19T12:59:53;4.93;;;2.90;;
20966;SDS011;10642;50.682;18.510;2023-09-19T13:02:19;2.87;;;1.97;;
20966;SDS011;10642;50.682;18.510;2023-09-19T13:04:54;3.00;;;2.20;;
20966;SDS011;10642;50.682;18.510;2023-09-19T13:07:40;6.77;;;2.80;;
20966;SDS011;10642;50.682;18.510;2023-09-19T13:10:10;2.90;;;2.10;;
20966;SDS011;10642;50.682;18.510;2023-09-19T13:12:38;4.07;;;2.63;;
20966;SDS011;10642;50.682;18.510;2023-09-19T13:15:08;3.40;;;2.33;;
20966;SDS011;10642;50.682;18.510;2023-09-19T13:17:43;3.60;;;2.30;;
20966;SDS011;10642;50.682;18.510;2023-09-19T13:20:26;3.40;;;2.40;;
20966;SDS011;10642;50.682;18.510;2023-09-19T13:22:59;3.37;;;2.27;;
20966;SDS011;10642;50.682;18.510;2023-09-19T13:25:38;6.10;;;2.10;;
20966;SDS011;10642;50.682;18.510;2023-09-19T13:28:07;2.93;;;2.20;;
20966;SDS011;10642;50.682;18.510;2023-09-19T13:30:36;4.47;;;1.80;;
20966;SDS011;10642;50.682;18.510;2023-09-19T13:33:04;3.03;;;1.77;;
20966;SDS011;10642;50.682;18.510;2023-09-19T13:35:33;5.53;;;2.10;;
20966;SDS011;10642;50.682;18.510;2023-09-19T13:38:00;2.70;;;1.63;;
20966;SDS011;10642;50.682;18.510;2023-09-19T13:40:27;5.70;;;2.10;;
20966;SDS011;10642;50.682;18.510;2023-09-19T13:42:57;38.10;;;5.07;;
20966;SDS011;10642;50.682;18.510;2023-09-19T13:45:24;19.00;;;3.63;;
20966;SDS011;10642;50.682;18.510;2023-09-19T13:47:51;11.27;;;2.40;;
20966;SDS011;10642;50.682;18.510;2023-09-19T13:50:18;22.00;;;3.30;;
20966;SDS011;10642;50.682;18.510;2023-09-19T13:52:51;7.40;;;2.40;;
20966;SDS011;10642;50.682;18.510;2023-09-19T13:55:18;4.57;;;1.80;;
20966;SDS011;10642;50.682;18.510;2023-09-19T13:57:48;5.40;;;1.77;;
20966;SDS011;10642;50.682;18.510;2023-09-19T14:00:21;2.90;;;1.90;;
20966;SDS011;10642;50.682;18.510;2023-09-19T14:02:49;2.37;;;1.60;;
20966;SDS011;10642;50.682;18.510;2023-09-19T14:05:18;4.03;;;1.80;;
20966;SDS011;10642;50.682;18.510;2023-09-19T14:07:45;3.70;;;1.47;;
20966;SDS011;10642;50.682;18.510;2023-09-19T14:10:13;8.70;;;2.07;;
20966;SDS011;10642;50.682;18.510;2023-09-19T14:12:40;5.70;;;1.60;;
20966;SDS011;10642;50.682;18.510;2023-09-19T14:15:11;7.10;;;1.70;;
20966;SDS011;10642;50.682;18.510;2023-09-19T14:17:39;3.43;;;1.40;;
20966;SDS011;10642;50.682;18.510;2023-09-19T14:20:06;4.93;;;1.50;;
20966;SDS011;10642;50.682;18.510;2023-09-19T14:22:33;5.20;;;1.40;;
20966;SDS011;10642;50.682;18.510;2023-09-19T14:25:00;4.13;;;1.53;;
20966;SDS011;10642;50.682;18.510;2023-09-19T14:27:28;5.33;;;1.90;;
20966;SDS011;10642;50.682;18.510;2023-09-19T14:29:54;2.83;;;1.50;;
20966;SDS011;10642;50.682;18.510;2023-09-19T14:32:23;3.13;;;1.57;;
20966;SDS011;10642;50.682;18.510;2023-09-19T14:34:50;3.07;;;1.30;;
20966;SDS011;10642;50.682;18.510;2023-09-19T14:37:17;3.77;;;1.40;;
20966;SDS011;10642;50.682;18.510;2023-09-19T14:39:44;2.97;;;1.40;;
20966;SDS011;10642;50.682;18.510;2023-09-19T14:42:11;2.60;;;1.20;;
20966;SDS011;10642;50.682;18.510;2023-09-19T14:44:39;3.43;;;1.50;;
20966;SDS011;10642;50.682;18.510;2023-09-19T14:47:09;6.67;;;1.80;;
20966;SDS011;10642;50.682;18.510;2023-09-19T14:49:36;3.10;;;1.67;;
20966;SDS011;10642;50.682;18.510;2023-09-19T14:52:07;4.33;;;1.63;;
20966;SDS011;10642;50.682;18.510;2023-09-19T14:54:34;6.10;;;1.70;;
20966;SDS011;10642;50.682;18.510;2023-09-19T14:57:01;4.03;;;1.70;;
20966;SDS011;10642;50.682;18.510;2023-09-19T14:59:31;4.63;;;1.67;;
20966;SDS011;10642;50.682;18.510;2023-09-19T15:01:58;2.53;;;1.50;;
20966;SDS011;10642;50.682;18.510;2023-09-19T15:04:26;3.87;;;1.40;;
20966;SDS011;10642;50.682;18.510;2023-09-19T15:06:54;3.27;;;1.90;;
20966;SDS011;10642;50.682;18.510;2023-09-19T15:09:22;4.87;;;1.73;;
20966;SDS011;10642;50.682;18.510;2023-09-19T15:11:53;7.13;;;2.07;;
20966;SDS011;10642;50.682;18.510;2023-09-19T15:14:20;2.70;;;1.77;;
20966;SDS011;10642;50.682;18.510;2023-09-19T15:16:47;3.23;;;1.63;;
20966;SDS011;10642;50.682;18.510;2023-09-19T15:19:15;3.37;;;1.50;;
20966;SDS011;10642;50.682;18.510;2023-09-19T15:21:42;2.20;;;1.60;;
20966;SDS011;10642;50.682;18.510;2023-09-19T15:24:08;4.57;;;1.57;;
20966;SDS011;10642;50.682;18.510;2023-09-19T15:26:37;3.87;;;1.57;;
20966;SDS011;10642;50.682;18.510;2023-09-19T15:29:07;3.10;;;2.20;;
20966;SDS011;10642;50.682;18.510;2023-09-19T15:31:34;2.97;;;1.70;;